Time;durP1;ratioP1;P1;durP2;ratioP2;P2;SDS_P1;SDS_P2;PMS_P1;PMS_P2;Temp;Humidity;BMP_temperature;BMP_pressure;BME280_temperature;BME280_humidity;BME280_pressure;Samples;Min_cycle;Max_cycle;Signal;HPM_P1;HPM_P2
2023/01/03 00:01:59;;;;;;;4.32;2.60;;;;;;;9.64;48.33;102177.91;5014216;28;20046;-79
2023/01/03 00:04:27;;;;;;;5.38;2.67;;;;;;;9.63;48.34;102178.00;5015537;28;20496;-80
2023/01/03 00:06:55;;;;;;;4.57;2.80;;;;;;;9.62;48.24;102176.22;5006911;28;20041;-80
2023/01/03 00:09:24;;;;;;;4.20;2.80;;;;;;;9.61;48.42;102178.06;5013611;28;20518;-79
2023/01/03 00:14:42;;;;;;;5.13;2.80;;;;;;;9.58;48.58;102178.25;5006845;28;20049;-80
2023/01/03 00:17:10;;;;;;;4.95;2.85;;;;;;;9.58;48.43;102188.31;5025690;28;20352;-80
2023/01/03 00:19:41;;;;;;;5.53;2.80;;;;;;;9.58;48.18;102182.84;5014357;28;20518;-80
2023/01/03 00:22:10;;;;;;;5.03;2.63;;;;;;;9.56;48.39;102184.81;5009515;28;20049;-80
2023/01/03 00:24:38;;;;;;;4.78;2.72;;;;;;;9.56;48.27;102182.09;5006192;28;20052;-80
2023/01/03 00:27:07;;;;;;;5.38;3.00;;;;;;;9.55;48.18;102189.41;5012838;28;20389;-80
2023/01/03 00:29:36;;;;;;;5.32;3.15;;;;;;;9.53;48.13;102185.00;5009643;28;20046;-79
2023/01/03 00:32:04;;;;;;;4.47;2.70;;;;;;;9.52;48.34;102183.22;5020006;28;20053;-78
2023/01/03 00:34:32;;;;;;;4.25;2.40;;;;;;;9.50;48.49;102179.72;5013270;28;20042;-78
2023/01/03 00:37:00;;;;;;;5.07;2.80;;;;;;;9.51;48.21;102184.22;5032391;28;20046;-79
2023/01/03 00:39:28;;;;;;;4.32;2.50;;;;;;;9.48;47.94;102182.56;5013919;28;20040;-79
2023/01/03 00:41:56;;;;;;;4.88;2.50;;;;;;;9.48;48.13;102184.41;5014231;28;20089;-80
2023/01/03 00:44:25;;;;;;;5.13;2.40;;;;;;;9.49;48.24;102191.66;5009125;28;20354;-80
2023/01/03 00:46:53;;;;;;;3.78;2.22;;;;;;;9.46;48.33;102201.78;5013163;28;20253;-79
2023/01/03 00:49:21;;;;;;;5.30;2.40;;;;;;;9.44;48.32;102191.91;5030212;28;20096;-79
2023/01/03 00:51:49;;;;;;;5.32;2.15;;;;;;;9.44;48.20;102192.78;5012843;28;20042;-80
2023/01/03 00:54:16;;;;;;;5.35;2.08;;;;;;;9.42;47.92;102194.72;5030390;28;20041;-80
2023/01/03 00:56:46;;;;;;;3.90;2.17;;;;;;;9.42;47.84;102182.91;5009622;28;20030;-79
2023/01/03 00:59:16;;;;;;;4.68;2.17;;;;;;;9.41;47.49;102198.44;5013457;28;20404;-79
2023/01/03 01:01:47;;;;;;;4.50;2.20;;;;;;;9.39;47.62;102194.94;5013149;28;20052;-79
2023/01/03 01:04:17;;;;;;;5.28;2.20;;;;;;;9.38;47.36;102197.72;5014672;28;20033;-80
2023/01/03 01:06:47;;;;;;;5.93;2.65;;;;;;;9.35;47.58;102208.84;5015210;28;20400;-80
2023/01/03 01:09:17;;;;;;;2.78;1.92;;;;;;;9.34;47.99;102205.22;5012400;28;20127;-80
2023/01/03 01:11:45;;;;;;;5.00;2.40;;;;;;;9.30;47.78;102203.66;5013884;28;20338;-80
2023/01/03 01:14:22;;;;;;;4.60;1.77;;;;;;;9.29;47.88;102210.09;5004994;28;20050;-80
2023/01/03 01:16:53;;;;;;;4.13;2.05;;;;;;;9.28;47.79;102216.53;5008228;28;20129;-80
2023/01/03 01:19:24;;;;;;;4.25;2.05;;;;;;;9.26;48.22;102212.13;5015923;28;20042;-79
2023/01/03 01:21:53;;;;;;;3.20;1.88;;;;;;;9.23;48.03;102218.69;5032143;28;20040;-79
2023/01/03 01:24:21;;;;;;;3.65;2.03;;;;;;;9.23;47.97;102223.25;5029468;28;20095;-80
2023/01/03 01:26:49;;;;;;;3.78;2.03;;;;;;;9.21;48.05;102219.72;5031006;28;20484;-79
2023/01/03 01:29:18;;;;;;;4.22;2.10;;;;;;;9.21;47.45;102222.47;5021678;28;20046;-79
2023/01/03 01:31:46;;;;;;;4.55;2.05;;;;;;;9.20;47.67;102226.16;5004429;28;20074;-79
2023/01/03 01:34:17;;;;;;;4.25;2.05;;;;;;;9.19;47.24;102224.41;5006378;28;20042;-79
2023/01/03 01:36:46;;;;;;;5.25;2.17;;;;;;;9.17;47.28;102231.78;5012905;28;20080;-80
2023/01/03 01:39:15;;;;;;;4.80;2.25;;;;;;;9.16;47.59;102241.00;5012075;28;20497;-79
2023/01/03 01:44:55;;;;;;;3.53;2.35;;;;;;;9.13;47.69;102244.78;5005495;28;20056;-79
2023/01/03 01:47:31;;;;;;;4.38;2.17;;;;;;;9.10;47.94;102243.09;5012255;28;20048;-79
2023/01/03 01:50:06;;;;;;;3.50;2.08;;;;;;;9.11;47.69;102252.16;5010604;28;20496;-79
2023/01/03 01:52:38;;;;;;;4.45;2.30;;;;;;;9.10;47.67;102262.22;5008192;28;20034;-79
2023/01/03 01:55:12;;;;;;;4.88;2.78;;;;;;;9.08;47.45;102264.16;5011202;28;20465;-79
2023/01/03 01:57:41;;;;;;;5.47;2.72;;;;;;;9.07;47.46;102267.00;5011072;28;20509;-79
2023/01/03 02:00:10;;;;;;;7.10;2.70;;;;;;;9.06;47.62;102268.84;5011898;28;20045;-79
2023/01/03 02:02:46;;;;;;;5.65;2.67;;;;;;;9.04;47.76;102270.78;5011361;28;20385;-78
2023/01/03 02:05:18;;;;;;;3.97;2.10;;;;;;;9.04;47.32;102270.78;5012693;28;20457;-80
2023/01/03 02:07:49;;;;;;;4.85;2.45;;;;;;;9.04;47.30;102272.63;5011438;28;20517;-80
2023/01/03 02:10:18;;;;;;;5.05;2.33;;;;;;;9.02;47.69;102264.53;5004683;28;20049;-79
2023/01/03 02:13:07;;;;;;;4.85;2.53;;;;;;;9.03;47.44;102269.00;5019109;28;20041;-79
2023/01/03 02:15:49;;;;;;;3.50;2.10;;;;;;;9.00;47.71;102274.63;5024125;28;20160;-78
2023/01/03 02:18:30;;;;;;;3.95;2.30;;;;;;;8.99;47.58;102275.63;5006952;28;20513;-79
2023/01/03 02:21:24;;;;;;;3.75;2.00;;;;;;;8.98;47.49;102282.06;5005476;28;20048;-79
2023/01/03 02:24:20;;;;;;;4.20;2.33;;;;;;;8.94;47.81;102283.19;5009211;28;20042;-79
2023/01/03 02:26:55;;;;;;;4.68;2.20;;;;;;;8.93;47.48;102286.91;5004805;28;20046;-79
2023/01/03 02:29:56;;;;;;;4.10;2.17;;;;;;;8.90;47.65;102278.91;5026367;28;20362;-79
2023/01/03 02:32:38;;;;;;;5.07;2.20;;;;;;;8.92;47.37;102281.53;5009186;28;20060;-79
2023/01/03 02:35:15;;;;;;;4.50;2.20;;;;;;;8.90;47.78;102280.75;5005619;28;20069;-79
2023/01/03 02:37:54;;;;;;;4.20;2.30;;;;;;;8.90;47.48;102289.81;5011491;28;20586;-79
2023/01/03 02:40:29;;;;;;;5.72;2.20;;;;;;;8.89;47.52;102289.91;5009997;28;20126;-79
2023/01/03 02:43:04;;;;;;;5.05;2.30;;;;;;;8.87;47.52;102280.91;5011421;28;20068;-79
2023/01/03 02:46:04;;;;;;;3.65;2.40;;;;;;;8.82;47.41;102281.19;5009237;28;20049;-79
2023/01/03 02:48:49;;;;;;;3.92;2.38;;;;;;;8.83;47.61;102285.69;5012346;28;20060;-79
2023/01/03 02:51:21;;;;;;;5.72;2.70;;;;;;;8.81;47.57;102290.34;5017215;28;20046;-79
2023/01/03 02:53:50;;;;;;;4.32;2.40;;;;;;;8.79;47.28;102291.41;5030608;28;20052;-80
2023/01/03 02:56:24;;;;;;;4.60;2.58;;;;;;;8.79;47.43;102286.81;5047076;28;20095;-80
2023/01/03 02:58:56;;;;;;;5.07;2.58;;;;;;;8.79;47.43;102283.22;5030437;28;20051;-80
2023/01/03 03:01:25;;;;;;;4.07;2.20;;;;;;;8.75;47.74;102284.38;5048579;28;20466;-78
2023/01/03 03:03:57;;;;;;;5.05;2.80;;;;;;;8.75;47.21;102284.38;5034189;28;20388;-79
2023/01/03 03:06:34;;;;;;;3.95;2.33;;;;;;;8.75;47.35;102281.66;5033279;28;20041;-78
2023/01/03 03:09:02;;;;;;;4.43;2.33;;;;;;;8.69;47.30;102275.53;5032327;28;20467;-79
2023/01/03 03:14:23;;;;;;;4.10;2.50;;;;;;;8.68;47.27;102283.81;5029296;28;20125;-79
2023/01/03 03:16:53;;;;;;;3.93;2.07;;;;;;;8.66;47.56;102288.50;5046299;28;20076;-79
2023/01/03 03:25:10;;;;;;;3.85;2.17;;;;;;;8.61;47.13;102293.31;5021764;28;20045;-79
2023/01/03 03:30:30;;;;;;;5.20;2.28;;;;;;;8.57;47.45;102295.38;5016619;28;20469;-79
2023/01/03 03:33:04;;;;;;;4.68;2.17;;;;;;;8.58;47.64;102297.13;5013036;28;20041;-79
2023/01/03 03:35:39;;;;;;;5.05;2.10;;;;;;;8.57;47.46;102298.09;5028128;28;20041;-79
2023/01/03 03:38:11;;;;;;;5.05;2.20;;;;;;;8.56;47.01;102290.88;5001510;28;20046;-79
2023/01/03 03:46:30;;;;;;;6.35;2.70;;;;;;;8.51;47.07;102289.34;5009976;28;20103;-79
2023/01/03 03:51:54;;;;;;;4.68;2.40;;;;;;;8.47;47.11;102288.66;5021791;28;20054;-79
2023/01/03 03:54:24;;;;;;;4.55;2.50;;;;;;;8.45;47.10;102293.31;5010655;28;20046;-79
2023/01/03 03:56:57;;;;;;;6.13;2.55;;;;;;;8.46;47.14;102286.91;5013290;28;20053;-79
2023/01/03 03:59:28;;;;;;;5.82;2.50;;;;;;;8.44;46.90;102283.38;5008284;28;20068;-78
2023/01/03 04:01:59;;;;;;;4.50;2.65;;;;;;;8.43;47.33;102287.06;5016182;28;20052;-78
2023/01/03 04:04:30;;;;;;;5.18;2.40;;;;;;;8.42;47.12;102281.72;5007907;28;20050;-79
2023/01/03 04:07:01;;;;;;;3.65;2.13;;;;;;;8.42;46.88;102292.63;5010639;28;20050;-79
2023/01/03 04:09:29;;;;;;;4.93;2.28;;;;;;;8.39;47.39;102290.94;5009186;28;20418;-79
2023/01/03 04:11:57;;;;;;;3.78;2.33;;;;;;;8.38;47.14;102297.34;5010638;28;20049;-79
2023/01/03 04:14:24;;;;;;;4.50;2.25;;;;;;;8.38;47.22;102285.56;5010325;28;20046;-79
2023/01/03 04:16:52;;;;;;;3.45;2.10;;;;;;;8.36;47.07;102290.22;5010161;28;20064;-79
2023/01/03 04:19:20;;;;;;;3.63;2.08;;;;;;;8.34;47.11;102296.63;5011130;28;20121;-78
2023/01/03 04:21:48;;;;;;;5.90;2.33;;;;;;;8.33;47.29;102286.72;5013834;28;20050;-78
2023/01/03 04:24:19;;;;;;;6.07;2.25;;;;;;;8.34;46.87;102291.19;5008779;28;20104;-78
2023/01/03 04:26:47;;;;;;;4.10;2.10;;;;;;;8.29;47.33;102295.13;5006528;28;20068;-78
2023/01/03 04:29:15;;;;;;;4.28;2.20;;;;;;;8.29;47.07;102293.28;5011266;28;20088;-78
2023/01/03 04:31:43;;;;;;;4.15;2.10;;;;;;;8.28;47.39;102288.78;5024943;28;20072;-78
2023/01/03 04:34:11;;;;;;;4.30;2.10;;;;;;;8.27;47.04;102287.03;5027408;28;20037;-79
2023/01/03 04:36:38;;;;;;;4.13;2.00;;;;;;;8.27;47.09;102288.88;5014378;28;20554;-79
2023/01/03 04:39:06;;;;;;;3.70;2.00;;;;;;;8.25;47.10;102288.97;5015656;28;20050;-78
2023/01/03 04:41:35;;;;;;;3.55;2.10;;;;;;;8.24;46.89;102287.22;5012754;28;20044;-79
2023/01/03 04:44:03;;;;;;;3.72;2.25;;;;;;;8.21;46.89;102287.38;5013046;28;20050;-79
2023/01/03 04:46:33;;;;;;;4.30;2.03;;;;;;;8.21;47.04;102292.84;5014051;28;20037;-79
2023/01/03 04:49:03;;;;;;;3.80;2.25;;;;;;;8.20;46.76;102298.38;5016189;28;20042;-79
2023/01/03 04:51:31;;;;;;;4.75;1.92;;;;;;;8.17;47.25;102299.44;5032119;28;20034;-79
2023/01/03 04:54:00;;;;;;;5.07;2.35;;;;;;;8.16;47.00;102300.41;5013829;28;20436;-78
2023/01/03 04:56:30;;;;;;;3.15;2.05;;;;;;;8.16;46.98;102302.25;5029236;28;20038;-78
2023/01/03 04:59:00;;;;;;;4.85;2.30;;;;;;;8.15;47.00;102311.38;5014728;28;20037;-79
2023/01/03 05:01:28;;;;;;;4.72;2.53;;;;;;;8.10;47.14;102308.84;5027845;28;20045;-79
2023/01/03 05:03:58;;;;;;;3.75;2.08;;;;;;;8.12;47.30;102308.78;5008183;28;20039;-78
2023/01/03 05:06:28;;;;;;;5.55;2.50;;;;;;;8.08;47.26;102305.34;5014886;28;20042;-78
2023/01/03 05:08:56;;;;;;;5.18;2.10;;;;;;;8.08;47.10;102307.19;5008840;28;20085;-78
2023/01/03 05:11:24;;;;;;;5.82;2.50;;;;;;;8.06;47.38;102298.22;5012010;28;20046;-78
2023/01/03 05:13:52;;;;;;;3.88;2.33;;;;;;;8.05;47.51;102302.78;5009514;28;20052;-78
2023/01/03 05:16:21;;;;;;;5.53;2.35;;;;;;;8.05;47.21;102297.31;5010856;28;20130;-78
2023/01/03 05:18:52;;;;;;;4.35;2.20;;;;;;;8.02;47.45;102300.22;5012225;28;20068;-78
2023/01/03 05:26:55;;;;;;;4.40;2.40;;;;;;;7.93;47.64;102295.25;5015982;28;20050;-77
2023/01/03 05:29:24;;;;;;;4.03;2.47;;;;;;;7.94;47.64;102297.00;5038785;28;20061;-77
2023/01/03 05:31:53;;;;;;;4.82;2.58;;;;;;;7.91;47.39;102292.63;5018186;28;20046;-78
2023/01/03 05:34:21;;;;;;;4.55;2.30;;;;;;;7.89;47.53;102300.00;5011582;28;20531;-78
2023/01/03 05:36:49;;;;;;;4.65;2.60;;;;;;;7.88;47.33;102292.78;5013159;28;20056;-78
2023/01/03 05:39:17;;;;;;;4.03;2.10;;;;;;;7.87;47.25;102290.13;5009327;28;20444;-78
2023/01/03 05:42:00;;;;;;;4.78;2.60;;;;;;;7.84;47.44;102288.47;5011769;28;20054;-78
2023/01/03 05:44:32;;;;;;;4.50;2.42;;;;;;;7.83;47.58;102291.28;5023913;28;20133;-78
2023/01/03 05:47:03;;;;;;;5.38;2.47;;;;;;;7.80;47.37;102286.84;5011249;28;20049;-78
2023/01/03 05:49:32;;;;;;;3.92;2.38;;;;;;;7.77;47.48;102286.13;5021056;28;20045;-78
2023/01/03 05:52:00;;;;;;;4.28;2.28;;;;;;;7.75;47.41;102285.34;5016418;28;20046;-78
2023/01/03 05:54:28;;;;;;;5.22;2.60;;;;;;;7.72;47.30;102285.50;5014670;28;20061;-79
2023/01/03 05:56:55;;;;;;;5.22;2.65;;;;;;;7.71;47.28;102289.19;5014625;28;20037;-78
2023/01/03 05:59:25;;;;;;;5.15;2.70;;;;;;;7.68;47.38;102290.25;5014570;28;20137;-77
2023/01/03 06:01:53;;;;;;;5.10;2.97;;;;;;;7.65;47.32;102292.25;5014205;28;20057;-80
2023/01/03 06:04:23;;;;;;;4.80;2.90;;;;;;;7.63;46.88;102295.03;5027864;28;20042;-79
2023/01/03 06:06:51;;;;;;;5.05;2.92;;;;;;;7.58;47.10;102295.31;5013869;28;20052;-78
2023/01/03 06:09:19;;;;;;;6.05;3.10;;;;;;;7.54;47.19;102288.22;5010327;28;20416;-77
2023/01/03 06:11:46;;;;;;;4.90;2.95;;;;;;;7.53;47.35;102301.94;5019833;28;20050;-77
2023/01/03 06:14:14;;;;;;;5.15;2.90;;;;;;;7.49;47.28;102295.78;5009760;28;20148;-78
2023/01/03 06:19:29;;;;;;;6.22;3.20;;;;;;;7.42;47.21;102302.50;5010948;28;20053;-77
2023/01/03 06:21:57;;;;;;;6.45;3.47;;;;;;;7.38;47.17;102297.28;5014149;28;20042;-78
2023/01/03 06:24:25;;;;;;;7.30;3.42;;;;;;;7.35;47.42;102305.63;5008351;28;20077;-78
2023/01/03 06:26:53;;;;;;;6.32;2.90;;;;;;;7.32;46.97;102295.75;5006236;28;20042;-78
2023/01/03 06:29:21;;;;;;;4.75;3.03;;;;;;;7.29;47.31;102295.91;5008740;28;20623;-78
2023/01/03 06:31:49;;;;;;;5.38;2.97;;;;;;;7.27;47.32;102296.97;5026012;28;20044;-78
2023/01/03 06:34:17;;;;;;;5.65;3.13;;;;;;;7.24;47.67;102300.72;5008506;28;20038;-79
2023/01/03 06:36:46;;;;;;;5.70;2.97;;;;;;;7.23;47.39;102298.94;5011929;28;20092;-78
2023/01/03 06:39:14;;;;;;;5.20;2.80;;;;;;;7.22;47.89;102310.78;5014057;28;20293;-79
2023/01/03 06:41:42;;;;;;;5.63;3.13;;;;;;;7.22;48.05;102307.19;5030829;28;20062;-79
2023/01/03 06:44:10;;;;;;;5.13;2.78;;;;;;;7.21;47.82;102311.75;5011294;28;20096;-79
2023/01/03 06:54:59;;;;;;;5.05;3.00;;;;;;;7.23;48.17;102298.06;5031980;28;20100;-79
2023/01/03 06:57:27;;;;;;;5.95;3.50;;;;;;;7.26;48.33;102315.16;5031566;28;20042;-79
2023/01/03 06:59:55;;;;;;;4.50;2.80;;;;;;;7.27;48.61;102307.84;5031134;28;20472;-79
2023/01/03 07:02:23;;;;;;;4.90;2.83;;;;;;;7.29;48.50;102309.53;5032222;28;20054;-79
2023/01/03 07:04:51;;;;;;;4.93;2.85;;;;;;;7.30;48.44;102307.69;5046158;28;20357;-79
2023/01/03 07:07:20;;;;;;;5.35;3.28;;;;;;;7.34;48.19;102312.91;5034283;28;20038;-79
2023/01/03 07:09:48;;;;;;;5.30;2.90;;;;;;;7.34;48.59;102306.59;5028652;28;20046;-77
2023/01/03 07:15:04;;;;;;;5.70;3.45;;;;;;;7.37;48.73;102311.84;5040631;28;20064;-78
2023/01/03 07:17:32;;;;;;;7.32;3.45;;;;;;;7.40;48.17;102300.81;5033138;28;20139;-78
2023/01/03 07:20:00;;;;;;;5.93;2.80;;;;;;;7.41;48.36;102308.03;5031004;28;20068;-79
2023/01/03 07:22:29;;;;;;;5.43;3.28;;;;;;;7.43;48.16;102309.72;5046860;28;20040;-79
2023/01/03 07:24:57;;;;;;;5.03;2.97;;;;;;;7.44;48.71;102305.13;5032481;28;20059;-79
2023/01/03 07:27:25;;;;;;;4.28;2.92;;;;;;;7.45;48.51;102315.06;5033838;28;20041;-79
2023/01/03 07:29:53;;;;;;;5.40;2.80;;;;;;;7.45;48.77;102299.59;5028053;28;20140;-78
2023/01/03 07:32:21;;;;;;;5.90;3.55;;;;;;;7.47;48.53;102304.97;5031271;28;20677;-79
2023/01/03 07:34:48;;;;;;;5.70;3.05;;;;;;;7.48;48.53;102312.19;5030666;28;20664;-79
2023/01/03 07:37:17;;;;;;;5.63;3.20;;;;;;;7.49;48.76;102323.03;5034000;28;20034;-79
2023/01/03 07:39:47;;;;;;;5.07;2.75;;;;;;;7.52;48.88;102320.13;5031363;28;20536;-79
2023/01/03 07:45:00;;;;;;;5.85;3.15;;;;;;;7.52;48.74;102328.28;5026350;28;20050;-79
2023/01/03 07:47:28;;;;;;;4.90;2.95;;;;;;;7.54;48.99;102331.81;5029040;28;20060;-79
2023/01/03 07:49:56;;;;;;;4.35;2.80;;;;;;;7.56;48.75;102329.03;5048014;28;20550;-79
2023/01/03 07:52:24;;;;;;;4.53;2.65;;;;;;;7.58;49.10;102322.53;5031304;28;20054;-79
2023/01/03 07:54:53;;;;;;;4.95;2.95;;;;;;;7.61;49.05;102321.47;5030463;28;20045;-78
2023/01/03 07:57:21;;;;;;;6.78;3.30;;;;;;;7.61;49.13;102317.88;5028149;28;20050;-79
2023/01/03 07:59:49;;;;;;;6.50;3.10;;;;;;;7.64;49.07;102317.72;5027537;28;20049;-79
2023/01/03 08:02:19;;;;;;;5.90;3.30;;;;;;;7.65;48.96;102316.78;5031060;28;20067;-78
2023/01/03 08:04:47;;;;;;;5.82;3.00;;;;;;;7.67;48.80;102315.75;5032183;28;20069;-78
2023/01/03 08:07:14;;;;;;;4.40;2.90;;;;;;;7.68;48.85;102317.50;5034893;28;20144;-79
2023/01/03 08:15:14;;;;;;;8.82;2.75;;;;;;;7.71;48.99;102330.94;5016057;28;20403;-78
2023/01/03 08:17:42;;;;;;;5.75;2.72;;;;;;;7.75;49.37;102342.59;5010927;28;20539;-78
2023/01/03 08:20:10;;;;;;;4.65;2.60;;;;;;;7.78;49.01;102328.78;5016365;28;20042;-79
2023/01/03 08:22:38;;;;;;;5.00;2.42;;;;;;;7.79;49.27;102331.44;5017246;28;20309;-79
2023/01/03 08:25:06;;;;;;;6.20;2.72;;;;;;;7.82;49.06;102324.94;5010565;28;20045;-79
2023/01/03 08:27:35;;;;;;;4.80;2.60;;;;;;;7.86;49.38;102331.97;5015031;28;20046;-79
2023/01/03 08:30:04;;;;;;;5.18;2.83;;;;;;;7.87;49.56;102331.91;5013823;28;20053;-78
2023/01/03 08:32:33;;;;;;;4.05;2.47;;;;;;;7.89;49.30;102329.97;5012078;28;20533;-78
2023/01/03 08:35:01;;;;;;;4.80;2.80;;;;;;;7.90;49.62;102337.22;5013040;28;20049;-78
2023/01/03 08:37:29;;;;;;;5.53;2.70;;;;;;;7.93;49.55;102330.69;5011658;28;20092;-78
2023/01/03 08:40:03;;;;;;;5.03;2.75;;;;;;;8.00;49.22;102328.53;5019034;28;20077;-78
2023/01/03 08:42:33;;;;;;;5.45;2.88;;;;;;;8.02;49.48;102332.03;5014113;28;20042;-78
2023/01/03 08:45:06;;;;;;;4.75;2.50;;;;;;;8.04;49.38;102328.28;5009084;28;20361;-77
2023/01/03 08:47:34;;;;;;;4.30;2.50;;;;;;;8.03;49.46;102322.91;5013956;28;20049;-79
2023/01/03 08:50:03;;;;;;;4.70;2.60;;;;;;;8.07;49.13;102339.03;5007311;28;20054;-78
2023/01/03 08:52:31;;;;;;;4.78;2.60;;;;;;;8.10;49.45;102338.84;5017553;28;20037;-79
2023/01/03 08:55:02;;;;;;;4.80;2.70;;;;;;;8.12;49.14;102336.03;5033088;28;20071;-77
2023/01/03 08:57:30;;;;;;;5.38;2.60;;;;;;;8.15;49.32;102327.75;5038075;28;20041;-79
2023/01/03 09:00:04;;;;;;;4.93;2.45;;;;;;;8.16;49.09;102333.13;5038799;28;20054;-79
2023/01/03 09:02:35;;;;;;;5.43;2.30;;;;;;;8.20;49.04;102344.72;4990838;28;20061;-83
2023/01/03 09:05:04;;;;;;;4.28;2.13;;;;;;;8.22;49.31;102356.44;4989274;28;20053;-83
2023/01/03 09:07:32;;;;;;;3.45;2.42;;;;;;;8.24;49.47;102351.78;4995851;28;20042;-83
2023/01/03 09:10:00;;;;;;;4.65;2.30;;;;;;;8.26;49.30;102367.09;4989733;28;20123;-83
2023/01/03 09:12:28;;;;;;;4.03;2.25;;;;;;;8.30;48.96;102365.09;5019436;28;20131;-83
2023/01/03 09:14:56;;;;;;;4.93;2.13;;;;;;;8.31;49.13;102367.75;5013326;28;20061;-83
2023/01/03 09:17:24;;;;;;;4.15;2.22;;;;;;;8.33;49.01;102357.63;5012178;28;20330;-83
2023/01/03 09:19:53;;;;;;;3.50;1.98;;;;;;;8.36;48.58;102362.03;5009767;28;20053;-84
2023/01/03 09:22:24;;;;;;;3.97;2.35;;;;;;;8.35;48.76;102357.53;5015514;28;20516;-84
2023/01/03 09:24:52;;;;;;;5.53;2.35;;;;;;;8.38;49.18;102364.66;5007695;28;20044;-84
2023/01/03 09:27:20;;;;;;;2.70;1.70;;;;;;;8.39;49.32;102364.59;5003218;28;20073;-84
2023/01/03 09:29:48;;;;;;;4.78;2.08;;;;;;;8.42;49.20;102367.16;5012075;28;20086;-84
2023/01/03 09:32:16;;;;;;;5.10;2.50;;;;;;;8.44;48.97;102367.06;5034129;28;20084;-84
2023/01/03 09:34:44;;;;;;;4.60;2.30;;;;;;;8.46;49.18;102366.00;5016534;28;20100;-84
2023/01/03 09:37:13;;;;;;;3.75;2.13;;;;;;;8.50;48.95;102364.00;5016108;28;20099;-84
2023/01/03 09:39:41;;;;;;;4.03;2.10;;;;;;;8.50;49.09;102356.72;5029339;28;20041;-82
2023/01/03 09:45:05;;;;;;;5.13;2.78;;;;;;;8.52;48.73;102365.66;5007925;28;20523;-83
2023/01/03 09:47:38;;;;;;;4.17;2.10;;;;;;;8.54;49.26;102366.47;5020528;28;20057;-83
2023/01/03 09:50:09;;;;;;;3.50;1.90;;;;;;;8.56;48.68;102360.94;5004807;28;20041;-82
2023/01/03 10:05:18;;;;;;;5.00;1.83;;;;;;;8.55;49.21;102365.50;5029853;28;20041;-85
2023/01/03 10:08:06;;;;;;;4.85;2.00;;;;;;;8.55;49.62;102365.50;4996881;28;20168;-85
2023/01/03 10:10:44;;;;;;;3.42;1.75;;;;;;;8.55;49.67;102356.44;5027942;28;20044;-84
2023/01/03 10:13:23;;;;;;;2.97;1.67;;;;;;;8.56;49.95;102358.22;5014988;28;20073;-84
2023/01/03 10:16:00;;;;;;;3.30;1.60;;;;;;;8.56;50.13;102364.56;5009950;28;20049;-84
2023/01/03 10:18:40;;;;;;;4.13;1.83;;;;;;;8.60;49.80;102365.25;5011373;28;20060;-84
2023/01/03 10:21:13;;;;;;;4.43;1.90;;;;;;;8.61;50.17;102367.00;5027249;28;20049;-84
2023/01/03 10:23:43;;;;;;;3.88;1.90;;;;;;;8.64;50.25;102365.00;5025393;28;20083;-85
2023/01/03 10:26:14;;;;;;;4.22;1.95;;;;;;;8.68;50.52;102360.25;5010937;28;20045;-85
2023/01/03 10:41:33;;;;;;;4.35;1.50;;;;;;;8.93;50.41;102354.28;4924694;29;20046;-84
2023/01/03 10:44:22;;;;;;;3.65;1.58;;;;;;;9.06;50.36;102350.78;4964840;28;20041;-85
2023/01/03 10:46:54;;;;;;;1.97;1.40;;;;;;;9.12;50.12;102346.78;5031101;28;20423;-85
2023/01/03 10:49:25;;;;;;;4.03;1.50;;;;;;;9.19;50.00;102344.59;5013843;28;20545;-85
2023/01/03 10:52:00;;;;;;;3.30;1.58;;;;;;;9.29;49.72;102345.81;5032418;28;20089;-84
2023/01/03 10:54:46;;;;;;;2.75;1.27;;;;;;;9.35;49.54;102337.25;5013165;28;20071;-85
2023/01/03 10:57:42;;;;;;;3.70;1.52;;;;;;;9.36;49.49;102345.38;5028933;28;20073;-85
2023/01/03 11:00:28;;;;;;;;;;;;;;;9.13;50.01;102339.50;5031853;28;20064;-85
2023/01/03 11:03:09;;;;;;;2.80;1.10;;;;;;;9.43;49.44;102345.91;5032957;28;19920;-83
2023/01/03 11:05:40;;;;;;;3.38;1.23;;;;;;;9.47;50.02;102344.78;5021256;28;20080;-85
2023/01/03 11:08:18;;;;;;;3.38;1.30;;;;;;;9.53;49.59;102338.94;5017689;28;20140;-84
2023/01/03 11:11:25;;;;;;;;;;;;;;;;;;;;;
2023/01/03 11:14:50;;;;;;;2.55;1.33;;;;;;;9.58;49.47;102341.38;5010739;28;20424;-84
2023/01/03 11:17:21;;;;;;;2.80;1.38;;;;;;;9.62;49.30;102342.97;5012513;28;20041;-83
2023/01/03 11:19:50;;;;;;;3.70;1.30;;;;;;;9.64;49.31;102336.44;5014508;28;20133;-85
2023/01/03 11:22:31;;;;;;;4.00;1.20;;;;;;;9.67;49.16;102338.09;5007570;28;20069;-85
2023/01/03 11:25:20;;;;;;;2.40;1.42;;;;;;;9.69;48.89;102341.63;5028364;28;20045;-85
2023/01/03 11:28:14;;;;;;;3.05;1.20;;;;;;;9.68;48.58;102346.19;5015176;28;20033;-85
2023/01/03 11:30:52;;;;;;;2.80;1.15;;;;;;;9.69;49.08;102341.63;5009673;28;20049;-84
2023/01/03 11:33:45;;;;;;;3.30;1.40;;;;;;;9.70;48.76;102341.53;5028968;28;20042;-84
2023/01/03 11:36:30;;;;;;;2.65;1.38;;;;;;;9.70;48.81;102340.66;5036483;28;20045;-84
2023/01/03 11:39:08;;;;;;;2.90;1.30;;;;;;;9.70;49.06;102337.91;5023321;28;20527;-85
2023/01/03 11:42:02;;;;;;;3.38;1.42;;;;;;;9.69;48.60;102337.03;5006675;28;20041;-83
2023/01/03 11:44:59;;;;;;;2.22;1.42;;;;;;;9.68;48.79;102318.88;5022951;28;20064;-84
2023/01/03 11:51:23;;;;;;;2.90;1.15;;;;;;;9.66;48.32;102325.41;4994290;28;20407;-85
2023/01/03 11:54:15;;;;;;;2.55;1.20;;;;;;;9.65;48.32;102324.53;5015561;28;20049;-85
2023/01/03 11:57:41;;;;;;;2.85;1.20;;;;;;;9.59;48.35;102324.00;5002265;28;20081;-84
2023/01/03 12:00:28;;;;;;;2.05;0.90;;;;;;;9.61;48.52;102309.28;5011858;28;20503;-84
2023/01/03 12:03:04;;;;;;;3.13;0.98;;;;;;;9.62;48.40;102301.97;5010634;28;20050;-85
2023/01/03 12:05:46;;;;;;;2.28;1.20;;;;;;;9.61;48.10;102300.19;4997966;28;20412;-85
2023/01/03 12:08:41;;;;;;;2.00;0.98;;;;;;;9.56;48.29;102295.03;5000232;28;20727;-85
2023/01/03 12:11:37;;;;;;;1.90;0.95;;;;;;;9.56;48.37;102284.09;5010748;28;20067;-84
2023/01/03 12:14:14;;;;;;;1.20;0.90;;;;;;;9.59;48.43;102289.34;5022295;28;20065;-84
2023/01/03 12:16:48;;;;;;;2.17;0.80;;;;;;;9.59;48.59;102280.28;5020502;28;20045;-84
2023/01/03 12:19:27;;;;;;;2.75;0.82;;;;;;;9.60;48.14;102282.03;5024798;28;20416;-84
2023/01/03 12:22:01;;;;;;;1.48;0.80;;;;;;;9.59;48.62;102281.16;5002670;28;21192;-84
2023/01/03 12:24:35;;;;;;;2.08;0.82;;;;;;;9.64;47.86;102280.88;5025989;28;20041;-85
2023/01/03 12:27:10;;;;;;;2.10;0.75;;;;;;;9.63;48.57;102284.59;5027214;28;20037;-85
2023/01/03 12:29:51;;;;;;;2.65;0.95;;;;;;;9.65;48.08;102282.66;5024980;28;20130;-85
2023/01/03 12:32:27;;;;;;;1.38;0.80;;;;;;;9.65;48.15;102280.81;5025158;28;20096;-85
2023/01/03 12:35:16;;;;;;;2.83;0.90;;;;;;;9.66;47.93;102274.34;5011182;28;20607;-84
2023/01/03 12:37:48;;;;;;;2.15;0.82;;;;;;;9.68;48.63;102279.72;5008266;28;20109;-84
2023/01/03 12:40:24;;;;;;;3.08;0.82;;;;;;;9.70;48.14;102277.78;5007620;28;20037;-84
2023/01/03 12:42:59;;;;;;;2.03;0.88;;;;;;;9.74;48.21;102274.75;5022777;28;20472;-85
2023/01/03 12:45:38;;;;;;;2.78;0.90;;;;;;;9.77;48.12;102280.03;5026378;28;20060;-84
2023/01/03 12:48:20;;;;;;;3.78;1.00;;;;;;;9.78;47.85;102270.84;5017915;28;20086;-85
2023/01/03 12:50:56;;;;;;;2.60;1.10;;;;;;;9.80;48.24;102266.19;5006367;28;20160;-85
2023/01/03 12:54:14;;;;;;;1.80;0.93;;;;;;;9.83;47.94;102265.97;5031996;28;20041;-85
2023/01/03 13:01:26;;;;;;;4.20;1.33;;;;;;;9.83;47.83;102265.09;4961394;28;20050;-85
2023/01/03 13:04:17;;;;;;;3.47;1.13;;;;;;;9.93;47.89;102251.72;5014091;28;20113;-85
2023/01/03 14:55:39;;;;;;;1.33;0.65;;;;;;;9.54;45.85;102268.75;4991269;28;20053;-83
2023/01/03 14:58:23;;;;;;;1.35;0.45;;;;;;;9.57;44.89;102266.72;4986638;28;20057;-84
2023/01/03 15:00:54;;;;;;;1.52;0.80;;;;;;;9.57;45.68;102268.56;5025961;23;20407;-76
2023/01/03 15:03:23;;;;;;;1.08;0.60;;;;;;;9.56;45.93;102264.97;5026713;28;20504;-77
2023/01/03 15:05:53;;;;;;;0.77;0.50;;;;;;;9.59;45.84;102272.06;5041027;28;20033;-76
2023/01/03 15:08:24;;;;;;;0.95;0.47;;;;;;;9.59;45.83;102275.69;5004149;28;20283;-77
2023/01/03 15:10:55;;;;;;;1.35;0.60;;;;;;;9.59;45.91;102272.06;5042748;28;20037;-77
2023/01/03 15:13:25;;;;;;;1.55;0.60;;;;;;;9.60;45.41;102268.38;5028447;28;21354;-76
2023/01/03 15:15:57;;;;;;;1.05;0.60;;;;;;;9.59;45.78;102267.47;5044910;28;20041;-77
2023/01/03 15:18:29;;;;;;;1.77;0.63;;;;;;;9.59;45.46;102269.34;5025143;28;20087;-76
2023/01/03 15:20:58;;;;;;;1.17;0.80;;;;;;;9.58;45.62;102268.47;5010894;28;20060;-77